This demonstration page uses our WeatherBlox Daily Observations layout. Learn more.

36.17497, -115.13722

Hourly Observations for July 29, 2015

Temp ( °F °C ) Dew Point ( °F °C ) Humidity (%) Winds ( mph kmh ) Pressure ( in mb ) Visibility ( mi km ) Precip ( " mm )
12:53 am 00:53 Clear 82 28 37 3 20 20 N 3 6 29.77 1008 10 16.09344 0 0
1:53 am 01:53 Clear 81 27 36 2 20 20 N 5 7 29.8 1009 10 16.09344 0 0
2:53 am 02:53 Clear 81 27 36 2 20 20 NNW 5 7 29.8 1009 10 16.09344 0 0
3:53 am 03:53 Clear 82 28 30 -1 15 15 NNE 7 11 29.8 1009 10 16.09344 0 0
4:53 am 04:53 Clear 79 26 34 1 20 20 Calm 29.85 1011 10 16.09344 0 0
5:53 am 05:53 Sunny 77 25 37 3 24 24 Calm 29.85 1011 10 16.09344 0 0
6:53 am 06:53 Sunny 81 27 36 2 20 20 Calm 29.88 1012 10 16.09344 0 0
7:53 am 07:53 Sunny 88 31 36 2 16 16 Calm 29.88 1012 10 16.09344 0 0
8:53 am 08:53 Sunny 90 32 34 1 14 14 S 7 11 29.88 1012 10 16.09344 0 0
9:53 am 09:53 Sunny 93 34 32 0 11 11 SE 7 11 29.85 1011 10 16.09344 0 0
10:53 am 10:53 Sunny 97 36 30 -1 9 9 SE 12 19 29.85 1011 10 16.09344 0 0
11:53 am 11:53 Sunny 97 36 30 -1 9 9 SE 12 19 29.85 1011 10 16.09344 0 0
12:53 pm 12:53 Sunny 99 37 34 1 10 10 Calm 29.8 1009 10 16.09344 0 0
1:53 pm 13:53 Sunny 100 38 36 2 10 10 ESE 8 13 29.8 1009 10 16.09344 0 0
2:53 pm 14:53 Sunny 102 39 37 3 11 11 undefined N/A 29.77 1008 10 16.09344 0 0
3:53 pm 15:53 Sunny 100 38 36 2 10 10 S 7 11 29.74 1007 10 16.09344 0 0
4:53 pm 16:53 Sunny 100 38 37 3 11 11 S 9 15 29.74 1007 10 16.09344 0 0
5:53 pm 17:53 Sunny 97 36 48 9 19 19 S 10 17 29.77 1008 10 16.09344 0 0
6:53 pm 18:53 Sunny 95 35 48 9 20 20 S 9 15 29.77 1008 10 16.09344 0 0
7:53 pm 19:53 Clear 93 34 50 10 23 23 SW 8 13 29.77 1008 10 16.09344 0 0
8:53 pm 20:53 Clear 93 34 48 9 21 21 SSW 7 11 29.77 1008 10 16.09344 0 0
9:53 pm 21:53 Clear 91 33 46 8 21 21 SE 5 7 29.8 1009 10 16.09344 0 0
10:53 pm 22:53 Clear 91 33 48 9 23 23 S 10 17 29.8 1009 10 16.09344 0 0
11:53 pm 23:53 Clear 91 33 48 9 23 23 SSW 7 11 29.8 1009 10 16.09344 0 0

Powered by AerisWeather